createdAt,value
2018-06-25T00:00:41.874Z,12.10
2018-06-25T00:03:12.725Z,12.10
2018-06-25T00:05:43.491Z,12.00
2018-06-25T00:10:44.275Z,11.90
2018-06-25T00:15:45.070Z,11.90
2018-06-25T00:18:15.911Z,11.80
2018-06-25T00:20:46.695Z,11.80
2018-06-25T00:23:17.491Z,11.80
2018-06-25T00:25:48.271Z,11.70
2018-06-25T00:28:19.137Z,11.70
2018-06-25T00:30:49.946Z,11.70
2018-06-25T00:33:20.879Z,11.60
2018-06-25T00:35:52.140Z,11.50
2018-06-25T00:38:22.936Z,11.50
2018-06-25T00:40:53.746Z,11.50
2018-06-25T00:43:24.549Z,11.40
2018-06-25T00:45:55.501Z,11.40
2018-06-25T00:48:26.331Z,11.30
2018-06-25T00:50:57.113Z,11.30
2018-06-25T00:53:27.916Z,11.20
2018-06-25T00:55:58.646Z,11.20
2018-06-25T00:58:33.792Z,11.10
2018-06-25T01:01:04.817Z,11.10
2018-06-25T01:03:35.633Z,11.10
2018-06-25T01:06:06.557Z,11.00
2018-06-25T01:08:37.614Z,11.00
2018-06-25T01:11:08.401Z,11.00
2018-06-25T01:13:39.218Z,11.00
2018-06-25T01:16:10.030Z,10.90
2018-06-25T01:18:40.838Z,10.90
2018-06-25T01:21:11.655Z,10.90
2018-06-25T01:23:42.433Z,10.90
2018-06-25T01:26:13.202Z,10.80
2018-06-25T01:28:44.043Z,10.80
2018-06-25T01:31:14.799Z,10.70
2018-06-25T01:33:45.599Z,10.70
2018-06-25T01:36:16.406Z,10.60
2018-06-25T01:38:47.193Z,10.60
2018-06-25T01:41:18.095Z,10.60
2018-06-25T01:46:18.818Z,10.50
2018-06-25T01:48:49.538Z,10.50
2018-06-25T01:51:20.642Z,10.50
2018-06-25T01:53:51.376Z,10.40
2018-06-25T01:58:53.058Z,10.40
2018-06-25T02:01:23.799Z,10.30
2018-06-25T02:03:54.845Z,10.30
2018-06-25T02:06:25.658Z,10.20
2018-06-25T02:08:56.454Z,10.20
2018-06-25T02:11:27.190Z,10.20
2018-06-25T02:13:58.278Z,10.20
2018-06-25T02:18:58.962Z,10.10
2018-06-25T02:21:29.934Z,10.10
2018-06-25T02:24:00.754Z,10.10
2018-06-25T02:26:31.638Z,10.00
2018-06-25T02:29:02.553Z,10.00
2018-06-25T02:31:33.375Z,10.00
2018-06-25T02:34:04.157Z,10.00
2018-06-25T02:36:37.247Z,10.00
2018-06-25T02:39:11.389Z,10.00
2018-06-25T02:41:42.212Z,10.00
2018-06-25T02:46:43.283Z,9.90
2018-06-25T02:49:14.082Z,10.00
2018-06-25T02:51:44.798Z,10.00
2018-06-25T02:54:16.630Z,10.00
2018-06-25T02:59:17.861Z,10.00
2018-06-25T03:01:48.686Z,10.10
2018-06-25T03:04:19.695Z,10.10
2018-06-25T03:06:50.523Z,10.20
2018-06-25T03:09:21.324Z,10.30
2018-06-25T03:11:52.517Z,10.30
2018-06-25T03:14:23.181Z,10.40
2018-06-25T03:16:54.200Z,10.40
2018-06-25T03:19:24.897Z,10.50
2018-06-25T03:21:55.648Z,10.50
2018-06-25T03:24:26.365Z,10.60
2018-06-25T03:26:57.157Z,10.60
2018-06-25T03:29:27.897Z,10.70
2018-06-25T03:31:58.642Z,10.70
2018-06-25T03:34:29.374Z,10.80
2018-06-25T03:37:00.098Z,10.90
2018-06-25T03:39:30.829Z,10.90
2018-06-25T03:42:01.666Z,11.00
2018-06-25T03:44:32.466Z,11.10
2018-06-25T03:47:03.227Z,11.20
2018-06-25T03:49:34.141Z,11.20
2018-06-25T03:52:05.138Z,11.30
2018-06-25T03:54:35.842Z,11.40
2018-06-25T03:57:06.665Z,11.50
2018-06-25T03:59:37.566Z,11.60
2018-06-25T04:02:08.322Z,11.70
2018-06-25T04:04:39.082Z,11.80
2018-06-25T04:07:10.328Z,11.90
2018-06-25T04:09:41.446Z,12.00
2018-06-25T04:12:12.322Z,12.00
2018-06-25T04:14:42.978Z,12.10
2018-06-25T04:19:43.690Z,12.30
2018-06-25T04:22:14.502Z,12.30
2018-06-25T04:24:45.350Z,12.40
2018-06-25T04:27:16.168Z,12.50
2018-06-25T04:29:47.105Z,12.60
2018-06-25T04:32:17.934Z,12.80
2018-06-25T04:37:18.965Z,12.90
2018-06-25T04:39:49.734Z,13.00
2018-06-25T04:44:50.702Z,13.20
2018-06-25T04:49:51.444Z,13.40
2018-06-25T04:52:22.260Z,13.50
2018-06-25T04:54:53.113Z,13.60
2018-06-25T04:57:24.257Z,13.70
2018-06-25T04:59:55.128Z,13.80
2018-06-25T05:02:25.989Z,13.90
2018-06-25T05:04:56.805Z,14.00
2018-06-25T05:09:57.841Z,14.20
2018-06-25T05:12:28.621Z,14.30
2018-06-25T05:14:59.421Z,14.30
2018-06-25T05:17:30.205Z,14.40
2018-06-25T05:20:01.014Z,14.50
2018-06-25T05:25:01.750Z,14.80
2018-06-25T05:27:32.467Z,14.90
2018-06-25T05:30:03.345Z,15.00
2018-06-25T05:32:34.118Z,15.10
2018-06-25T05:35:05.034Z,15.30
2018-06-25T05:40:05.869Z,15.50
2018-06-25T05:42:36.665Z,15.60
2018-06-25T05:45:07.529Z,15.80
2018-06-25T05:50:08.733Z,16.00
2018-06-25T05:52:39.475Z,16.10
2018-06-25T05:55:10.415Z,16.20
2018-06-25T05:57:41.180Z,16.30
2018-06-25T06:00:12.122Z,16.40
2018-06-25T06:02:42.961Z,16.50
2018-06-25T06:05:13.754Z,16.70
2018-06-25T06:10:15.022Z,16.90
2018-06-25T06:12:45.837Z,17.00
2018-06-25T06:15:16.622Z,17.10
2018-06-25T06:17:47.859Z,17.20
2018-06-25T06:22:48.561Z,17.40
2018-06-25T06:25:19.349Z,17.60
2018-06-25T06:27:50.214Z,17.70
2018-06-25T06:30:21.124Z,17.80
2018-06-25T06:32:51.861Z,17.90
2018-06-25T06:35:22.939Z,18.00
2018-06-25T06:37:53.749Z,18.10
2018-06-25T06:42:55.427Z,18.30
2018-06-25T06:45:28.963Z,18.40
2018-06-25T06:48:00.086Z,18.50
2018-06-25T06:50:30.882Z,18.60
2018-06-25T06:53:01.778Z,18.60
2018-06-25T06:58:02.531Z,18.90
2018-06-25T07:00:33.652Z,18.90
2018-06-25T07:03:04.853Z,19.00
2018-06-25T07:05:35.748Z,19.10
2018-06-25T07:08:06.581Z,19.20
2018-06-25T07:10:37.458Z,19.30
2018-06-25T07:13:09.463Z,19.40
2018-06-25T07:15:40.286Z,19.50
2018-06-25T07:18:12.440Z,19.60
2018-06-25T07:20:43.382Z,19.60
2018-06-25T07:23:14.134Z,19.70
2018-06-25T07:25:44.874Z,19.80
2018-06-25T07:28:16.120Z,19.90
2018-06-25T07:30:46.941Z,20.00
2018-06-25T07:33:17.744Z,20.00
2018-06-25T07:40:49.049Z,20.30
2018-06-25T07:43:20.260Z,20.40
2018-06-25T07:45:52.204Z,20.40
2018-06-25T07:48:23.384Z,20.50
2018-06-25T07:50:54.435Z,20.60
2018-06-25T07:53:25.846Z,20.70
2018-06-25T07:55:57.180Z,20.80
2018-06-25T07:58:29.510Z,20.90
2018-06-25T08:01:00.589Z,20.90
2018-06-25T08:03:31.777Z,20.90
2018-06-25T08:06:03.734Z,21.00
2018-06-25T08:08:35.367Z,21.10
2018-06-25T08:11:06.494Z,21.10
2018-06-25T08:13:37.501Z,21.20
2018-06-25T08:16:08.562Z,21.30
2018-06-25T08:21:10.457Z,21.50
2018-06-25T08:26:13.337Z,21.60
2018-06-25T08:28:44.355Z,21.70
2018-06-25T08:31:15.441Z,21.80
2018-06-25T08:36:21.169Z,21.80
2018-06-25T08:38:52.288Z,21.90
2018-06-25T08:41:23.611Z,22.00
2018-06-25T08:43:54.882Z,22.10
2018-06-25T08:46:26.406Z,22.20
2018-06-25T08:48:58.540Z,22.30
2018-06-25T08:51:31.084Z,22.40
2018-06-25T08:54:02.438Z,22.40
2018-06-25T08:56:33.548Z,22.40
2018-06-25T08:59:05.083Z,22.50
2018-06-25T09:01:36.069Z,22.60
2018-06-25T09:04:08.202Z,22.80
2018-06-25T09:06:39.345Z,22.90
2018-06-25T09:09:12.337Z,23.00
2018-06-25T09:11:44.352Z,23.10
2018-06-25T09:14:15.804Z,23.20
2018-06-25T09:16:46.818Z,23.30
2018-06-25T09:19:18.780Z,23.30
2018-06-25T09:21:49.813Z,23.30
2018-06-25T09:24:20.915Z,23.40
2018-06-25T09:26:52.910Z,23.50
2018-06-25T09:29:24.381Z,23.60
2018-06-25T09:31:55.767Z,23.70
2018-06-25T09:34:31.669Z,23.80
2018-06-25T09:37:02.791Z,23.90
2018-06-25T09:39:35.587Z,24.00
2018-06-25T09:42:06.605Z,24.10
2018-06-25T09:44:37.702Z,24.10
2018-06-25T09:47:09.407Z,24.20
2018-06-25T09:49:40.482Z,24.30
2018-06-25T09:52:11.634Z,24.30
2018-06-25T09:54:42.690Z,24.40
2018-06-25T09:57:13.747Z,24.40
2018-06-25T09:59:46.343Z,24.60
2018-06-25T10:02:17.625Z,24.60
2018-06-25T10:04:48.802Z,24.70
2018-06-25T10:07:20.160Z,24.80
2018-06-25T10:09:51.846Z,24.90
2018-06-25T10:12:23.815Z,24.90
2018-06-25T10:14:55.608Z,25.00
2018-06-25T10:17:26.633Z,25.00
2018-06-25T10:22:27.844Z,25.00
2018-06-25T10:24:59.330Z,25.20
2018-06-25T10:27:31.317Z,25.40
2018-06-25T10:32:32.376Z,25.80
2018-06-25T10:35:03.433Z,25.90
2018-06-25T10:37:34.517Z,25.90
2018-06-25T10:40:05.842Z,25.80
2018-06-25T10:42:38.046Z,25.90
2018-06-25T10:45:09.092Z,25.80
2018-06-25T10:47:40.233Z,25.80
2018-06-25T10:50:11.214Z,25.70
2018-06-25T10:52:42.259Z,25.70
2018-06-25T10:55:14.069Z,25.60
2018-06-25T10:57:51.017Z,25.60
2018-06-25T11:00:22.286Z,25.60
2018-06-25T11:02:52.977Z,25.60
2018-06-25T11:05:24.772Z,25.60
2018-06-25T11:07:55.759Z,25.60
2018-06-25T11:10:27.398Z,25.60
2018-06-25T11:12:58.489Z,25.80
2018-06-25T11:15:29.639Z,25.90
2018-06-25T11:18:00.721Z,26.00
2018-06-25T11:20:31.723Z,26.10
2018-06-25T11:23:02.712Z,26.10
2018-06-25T11:25:34.737Z,26.20
2018-06-25T11:28:06.575Z,26.30
2018-06-25T11:30:37.690Z,26.40
2018-06-25T11:33:08.729Z,26.40
2018-06-25T11:35:39.808Z,26.40
2018-06-25T11:38:10.832Z,26.40
2018-06-25T11:40:41.862Z,26.30
2018-06-25T11:43:13.024Z,26.20
2018-06-25T11:45:44.294Z,26.10
2018-06-25T11:48:15.873Z,26.20
2018-06-25T11:50:47.383Z,26.30
2018-06-25T11:53:18.435Z,26.30
2018-06-25T11:55:49.468Z,26.40
2018-06-25T11:58:20.628Z,26.40
2018-06-25T12:00:51.564Z,26.60
2018-06-25T12:03:23.045Z,26.70
2018-06-25T12:05:54.151Z,26.80
2018-06-25T12:08:25.294Z,26.90
2018-06-25T12:10:56.651Z,27.00
2018-06-25T12:13:28.293Z,27.10
2018-06-25T12:15:59.305Z,27.30
2018-06-25T12:18:30.832Z,27.30
2018-06-25T12:21:02.543Z,27.30
2018-06-25T12:23:34.169Z,27.10
2018-06-25T12:26:05.116Z,27.10
2018-06-25T12:28:37.134Z,27.00
2018-06-25T12:31:08.976Z,27.00
2018-06-25T12:33:39.935Z,26.90
2018-06-25T12:36:12.991Z,26.80
2018-06-25T12:41:15.647Z,26.70
2018-06-25T12:43:47.817Z,26.80
2018-06-25T12:46:19.088Z,26.90
2018-06-25T12:48:50.334Z,26.90
2018-06-25T12:51:22.473Z,26.80
2018-06-25T12:53:54.958Z,26.80
2018-06-25T12:56:26.115Z,26.60
2018-06-25T12:58:57.720Z,26.50
2018-06-25T13:04:00.055Z,26.30
2018-06-25T13:06:32.216Z,26.20
2018-06-25T13:09:04.608Z,26.10
2018-06-25T13:11:36.739Z,26.10
2018-06-25T13:14:07.880Z,26.00
2018-06-25T13:16:39.296Z,26.00
2018-06-25T13:19:12.877Z,25.90
2018-06-25T13:21:43.898Z,25.80
2018-06-25T13:24:14.819Z,25.70
2018-06-25T13:26:46.911Z,25.70
2018-06-25T13:29:17.798Z,25.60
2018-06-25T13:31:48.769Z,25.60
2018-06-25T13:34:20.200Z,25.50
2018-06-25T13:39:21.718Z,25.40
2018-06-25T13:41:54.058Z,25.40
2018-06-25T13:44:25.470Z,25.30
2018-06-25T13:46:56.308Z,25.20
2018-06-25T13:49:26.989Z,25.10
2018-06-25T13:54:28.826Z,24.90
2018-06-25T13:57:00.201Z,24.90
2018-06-25T13:59:31.213Z,24.80
2018-06-25T14:02:01.898Z,24.70
2018-06-25T14:04:34.565Z,24.70
2018-06-25T14:07:05.673Z,24.60
2018-06-25T14:09:37.529Z,24.50
2018-06-25T14:12:08.378Z,24.50
2018-06-25T14:14:39.589Z,24.40
2018-06-25T14:19:42.054Z,24.30
2018-06-25T14:22:13.250Z,24.20
2018-06-25T14:24:48.762Z,24.20
2018-06-25T14:27:20.097Z,24.20
2018-06-25T14:29:51.334Z,24.10
2018-06-25T14:32:27.056Z,24.10
2018-06-25T14:35:02.685Z,24.10
2018-06-25T14:37:35.676Z,24.00
2018-06-25T14:40:06.536Z,24.00
2018-06-25T14:42:37.229Z,23.90
2018-06-25T14:45:08.108Z,23.90
2018-06-25T14:47:38.842Z,23.90
2018-06-25T14:50:09.563Z,23.80
2018-06-25T14:52:40.531Z,23.80
2018-06-25T14:55:11.314Z,23.80
2018-06-25T14:57:42.024Z,23.70
2018-06-25T15:00:16.815Z,23.70
2018-06-25T15:07:50.413Z,23.70
2018-06-25T15:10:21.093Z,23.60
2018-06-25T15:12:52.501Z,23.70
2018-06-25T15:15:23.262Z,23.70
2018-06-25T15:20:24.728Z,23.70
2018-06-25T15:22:56.028Z,23.70
2018-06-25T15:25:27.415Z,23.70
2018-06-25T15:27:58.654Z,23.70
2018-06-25T15:30:30.455Z,23.70
2018-06-25T15:33:01.936Z,23.70
2018-06-25T15:35:33.334Z,23.70
2018-06-25T15:38:04.389Z,23.60
2018-06-25T15:40:35.490Z,23.60
2018-06-25T15:43:06.564Z,23.50
2018-06-25T15:45:37.676Z,23.50
2018-06-25T15:48:09.730Z,23.40
2018-06-25T15:50:40.966Z,23.40
2018-06-25T15:53:11.949Z,23.30
2018-06-25T15:55:43.515Z,23.30
2018-06-25T15:58:14.805Z,23.30
2018-06-25T16:00:46.853Z,23.30
2018-06-25T16:03:18.106Z,23.30
2018-06-25T16:05:50.006Z,23.30
2018-06-25T16:08:21.631Z,23.30
2018-06-25T16:13:22.958Z,23.40
2018-06-25T16:15:54.893Z,23.40
2018-06-25T16:18:26.674Z,23.50
2018-06-25T16:20:57.499Z,23.50
2018-06-25T16:23:28.270Z,23.60
2018-06-25T16:25:58.967Z,23.70
2018-06-25T16:28:29.682Z,23.70
2018-06-25T16:33:30.389Z,23.80
2018-06-25T16:36:01.098Z,23.90
2018-06-25T16:38:31.985Z,23.90
2018-06-25T16:41:03.236Z,23.90
2018-06-25T16:43:34.019Z,23.80
2018-06-25T16:48:34.772Z,23.80
2018-06-25T16:51:05.715Z,23.80
2018-06-25T16:53:36.469Z,23.80
2018-06-25T16:56:07.574Z,23.70
2018-06-25T16:58:38.409Z,23.70
2018-06-25T17:01:09.532Z,23.60
2018-06-25T17:03:40.292Z,23.60
2018-06-25T17:06:11.121Z,23.50
2018-06-25T17:08:41.909Z,23.50
2018-06-25T17:11:13.043Z,23.40
2018-06-25T17:13:43.761Z,23.40
2018-06-25T17:16:14.670Z,23.40
2018-06-25T17:18:45.382Z,23.30
2018-06-25T17:21:17.486Z,23.30
2018-06-25T17:26:19.472Z,23.30
2018-06-25T17:28:50.874Z,23.20
2018-06-25T17:31:23.034Z,23.20
2018-06-25T17:36:23.725Z,23.20
2018-06-25T17:38:54.462Z,23.10
2018-06-25T17:41:25.177Z,23.10
2018-06-25T17:43:56.660Z,23.10
2018-06-25T17:46:27.410Z,23.00
2018-06-25T17:51:28.142Z,23.00
2018-06-25T17:53:58.887Z,23.00
2018-06-25T17:56:29.687Z,22.90
2018-06-25T18:01:30.929Z,22.90
2018-06-25T18:04:01.980Z,22.80
2018-06-25T18:09:03.577Z,22.80
2018-06-25T18:11:34.351Z,22.70
2018-06-25T18:14:05.822Z,22.70
2018-06-25T18:16:36.804Z,22.60
2018-06-25T18:24:09.106Z,22.60
2018-06-25T18:26:40.352Z,22.60
2018-06-25T18:29:12.119Z,22.60
2018-06-25T18:31:43.309Z,22.60
2018-06-25T18:34:14.414Z,22.70
2018-06-25T18:39:18.921Z,23.00
2018-06-25T18:44:20.217Z,23.10
2018-06-25T18:46:51.342Z,23.20
2018-06-25T18:49:22.434Z,23.20
2018-06-25T18:54:24.522Z,23.30
2018-06-25T18:56:55.869Z,23.40
2018-06-25T18:59:28.206Z,23.60
2018-06-25T19:01:59.650Z,23.70
2018-06-25T19:04:30.809Z,23.70
2018-06-25T19:07:02.300Z,23.70
2018-06-25T19:12:04.299Z,23.50
2018-06-25T19:14:35.273Z,23.40
2018-06-25T19:17:06.514Z,23.40
2018-06-25T19:19:37.438Z,23.30
2018-06-25T19:22:08.754Z,23.20
2018-06-25T19:27:10.102Z,23.20
2018-06-25T19:29:42.250Z,23.30
2018-06-25T19:32:13.201Z,23.30
2018-06-25T19:34:45.448Z,23.40
2018-06-25T19:39:52.011Z,23.40
2018-06-25T19:42:22.823Z,23.30
2018-06-25T19:44:53.643Z,23.10
2018-06-25T19:47:24.366Z,23.00
2018-06-25T19:49:55.087Z,22.80
2018-06-25T19:52:25.957Z,22.60
2018-06-25T19:54:56.686Z,22.40
2018-06-25T19:57:27.457Z,22.30
2018-06-25T19:59:58.193Z,22.10
2018-06-25T20:02:29.033Z,21.90
2018-06-25T20:05:00.361Z,21.80
2018-06-25T20:07:31.124Z,21.60
2018-06-25T20:10:02.094Z,21.50
2018-06-25T20:12:32.909Z,21.40
2018-06-25T20:15:04.078Z,21.20
2018-06-25T20:17:36.178Z,21.10
2018-06-25T20:20:08.626Z,21.00
2018-06-25T20:22:40.026Z,20.80
2018-06-25T20:25:11.451Z,20.70
2018-06-25T20:27:42.750Z,20.50
2018-06-25T20:30:14.023Z,20.40
2018-06-25T20:32:46.409Z,20.30
2018-06-25T20:35:17.676Z,20.10
2018-06-25T20:37:49.457Z,20.10
2018-06-25T20:40:20.932Z,19.90
2018-06-25T20:42:52.213Z,19.80
2018-06-25T20:45:23.266Z,19.70
2018-06-25T20:47:54.417Z,19.60
2018-06-25T20:50:25.329Z,19.50
2018-06-25T20:52:56.734Z,19.40
2018-06-25T20:55:27.817Z,19.30
2018-06-25T20:57:58.861Z,19.30
2018-06-25T21:00:29.797Z,19.20
2018-06-25T21:03:00.747Z,19.10
2018-06-25T21:05:31.845Z,19.10
2018-06-25T21:08:03.067Z,19.00
2018-06-25T21:10:34.560Z,18.80
2018-06-25T21:13:05.921Z,18.70
2018-06-25T21:15:36.794Z,18.60
2018-06-25T21:18:08.573Z,18.50
2018-06-25T21:23:09.812Z,18.30
2018-06-25T21:25:41.165Z,18.30
2018-06-25T21:28:11.846Z,18.20
2018-06-25T21:30:42.525Z,18.10
2018-06-25T21:33:13.230Z,18.00
2018-06-25T21:35:44.337Z,17.90
2018-06-25T21:38:16.111Z,17.80
2018-06-25T21:43:19.639Z,17.60
2018-06-25T21:45:50.734Z,17.50
2018-06-25T21:48:22.374Z,17.40
2018-06-25T21:50:56.927Z,17.40
2018-06-25T21:53:29.801Z,17.30
2018-06-25T21:56:01.896Z,17.20
2018-06-25T22:01:04.910Z,17.10
2018-06-25T22:08:36.466Z,16.90
2018-06-25T22:11:07.690Z,16.80
2018-06-25T22:13:38.893Z,16.80
2018-06-25T22:16:10.266Z,16.70
2018-06-25T22:18:41.359Z,16.70
2018-06-25T22:21:12.555Z,16.60
2018-06-25T22:26:13.874Z,16.50
2018-06-25T22:28:45.539Z,16.40
2018-06-25T22:31:17.421Z,16.40
2018-06-25T22:33:48.634Z,16.30
2018-06-25T22:36:19.826Z,16.20
2018-06-25T22:38:50.897Z,16.20
2018-06-25T22:41:22.129Z,16.10
2018-06-25T22:43:53.549Z,16.00
2018-06-25T22:46:25.569Z,15.90
2018-06-25T22:48:56.763Z,15.80
2018-06-25T22:51:27.738Z,15.70
2018-06-25T22:56:29.222Z,15.60
2018-06-25T23:01:31.373Z,15.50
2018-06-25T23:04:02.446Z,15.50
2018-06-25T23:09:04.950Z,15.40
2018-06-25T23:14:07.309Z,15.40
2018-06-25T23:16:38.093Z,15.40
2018-06-25T23:19:08.792Z,15.40
2018-06-25T23:21:39.436Z,15.40
2018-06-25T23:24:10.209Z,15.40
2018-06-25T23:26:40.877Z,15.40
2018-06-25T23:29:12.022Z,15.40
2018-06-25T23:31:43.038Z,15.40
2018-06-25T23:34:13.809Z,15.50
2018-06-25T23:36:44.510Z,15.50
2018-06-25T23:39:15.701Z,15.50
2018-06-25T23:41:46.389Z,15.50
2018-06-25T23:44:17.479Z,15.50
2018-06-25T23:46:49.611Z,15.50
2018-06-25T23:49:20.321Z,15.50
2018-06-25T23:54:21.374Z,15.50
